createdAt,value
2023-09-10T00:01:22.922Z,26.00
2023-09-10T00:03:49.858Z,26.00
2023-09-10T00:06:18.876Z,26.00
2023-09-10T00:08:50.297Z,25.90
2023-09-10T00:11:17.056Z,25.90
2023-09-10T00:13:45.943Z,25.90
2023-09-10T00:16:15.012Z,25.90
2023-09-10T00:18:41.708Z,25.80
2023-09-10T00:21:08.410Z,25.80
2023-09-10T00:23:35.158Z,25.80
2023-09-10T00:26:04.081Z,25.80
2023-09-10T00:28:33.173Z,25.70
2023-09-10T00:30:59.870Z,25.70
2023-09-10T00:33:26.630Z,25.70
2023-09-10T00:35:53.338Z,25.70
2023-09-10T00:38:20.039Z,25.70
2023-09-10T00:40:49.185Z,25.70
2023-09-10T00:43:15.957Z,25.60
2023-09-10T00:45:42.946Z,25.60
2023-09-10T00:48:09.726Z,25.60
2023-09-10T00:50:39.032Z,25.60
2023-09-10T00:53:06.669Z,25.50
2023-09-10T00:55:36.168Z,25.50
2023-09-10T00:58:05.266Z,25.50
2023-09-10T01:00:33.868Z,25.50
2023-09-10T01:03:00.721Z,25.50
2023-09-10T01:05:27.701Z,25.50
2023-09-10T01:07:55.159Z,25.40
2023-09-10T01:10:27.113Z,25.40
2023-09-10T01:13:02.146Z,25.40
2023-09-10T01:15:41.401Z,25.30
2023-09-10T01:18:22.719Z,25.30
2023-09-10T01:21:14.102Z,25.30
2023-09-10T01:23:49.912Z,25.30
2023-09-10T01:26:16.576Z,25.30
2023-09-10T01:28:43.274Z,25.30
2023-09-10T01:31:12.257Z,25.20
2023-09-10T01:33:50.192Z,25.20
2023-09-10T01:36:22.158Z,25.20
2023-09-10T01:38:52.478Z,25.20
2023-09-10T01:41:23.032Z,25.10
2023-09-10T01:43:50.527Z,25.10
2023-09-10T01:46:17.593Z,25.10
2023-09-10T01:48:44.850Z,25.10
2023-09-10T01:51:11.718Z,25.00
2023-09-10T01:53:38.533Z,25.00
2023-09-10T01:56:05.611Z,25.00
2023-09-10T01:58:34.839Z,25.00
2023-09-10T02:01:01.599Z,25.00
2023-09-10T02:03:28.930Z,24.90
2023-09-10T02:06:04.566Z,24.90
2023-09-10T02:08:31.804Z,24.90
2023-09-10T02:10:58.577Z,24.90
2023-09-10T02:13:27.471Z,24.90
2023-09-10T02:15:54.292Z,24.80
2023-09-10T02:18:21.255Z,24.80
2023-09-10T02:20:47.891Z,24.80
2023-09-10T02:23:14.590Z,24.80
2023-09-10T02:25:42.876Z,24.80
2023-09-10T02:28:10.515Z,24.70
2023-09-10T02:30:41.866Z,24.70
2023-09-10T02:33:10.701Z,24.70
2023-09-10T02:35:37.498Z,24.70
2023-09-10T02:38:04.544Z,24.60
2023-09-10T02:40:31.243Z,24.60
2023-09-10T02:42:57.900Z,24.60
2023-09-10T02:45:24.687Z,24.60
2023-09-10T02:47:53.650Z,24.60
2023-09-10T02:50:20.330Z,24.60
2023-09-10T02:52:47.080Z,24.50
2023-09-10T02:55:13.798Z,24.50
2023-09-10T02:57:40.439Z,24.50
2023-09-10T03:00:12.453Z,24.50
2023-09-10T03:02:42.005Z,24.50
2023-09-10T03:05:13.525Z,24.40
2023-09-10T03:07:42.596Z,24.40
2023-09-10T03:10:09.578Z,24.40
2023-09-10T03:12:36.399Z,24.40
2023-09-10T03:15:08.530Z,24.40
2023-09-10T03:17:37.650Z,24.40
2023-09-10T03:20:06.235Z,24.30
2023-09-10T03:22:35.112Z,24.30
2023-09-10T03:25:01.837Z,24.30
2023-09-10T03:27:28.479Z,24.30
2023-09-10T03:29:57.380Z,24.30
2023-09-10T03:32:24.126Z,24.30
2023-09-10T03:34:53.399Z,24.20
2023-09-10T03:37:20.312Z,24.20
2023-09-10T03:39:46.978Z,24.20
2023-09-10T03:42:17.647Z,24.20
2023-09-10T03:44:46.672Z,24.20
2023-09-10T03:47:13.446Z,24.20
2023-09-10T03:49:42.340Z,24.10
2023-09-10T03:52:22.015Z,24.10
2023-09-10T03:54:49.407Z,24.10
2023-09-10T03:57:16.254Z,24.10
2023-09-10T03:59:42.997Z,24.10
2023-09-10T04:02:10.420Z,24.00
2023-09-10T04:04:39.641Z,24.00
2023-09-10T04:07:06.344Z,24.00
2023-09-10T04:09:33.301Z,24.00
2023-09-10T04:12:00.153Z,24.00
2023-09-10T04:14:27.896Z,24.00
2023-09-10T04:16:54.717Z,23.90
2023-09-10T04:19:23.445Z,23.90
2023-09-10T04:21:50.239Z,23.90
2023-09-10T04:24:16.925Z,23.90
2023-09-10T04:26:43.773Z,23.90
2023-09-10T04:29:10.937Z,23.90
2023-09-10T04:31:41.314Z,23.80
2023-09-10T04:34:08.014Z,23.80
2023-09-10T04:36:34.700Z,23.80
2023-09-10T04:39:01.364Z,23.80
2023-09-10T04:41:28.059Z,23.80
2023-09-10T04:43:54.783Z,23.70
2023-09-10T04:46:21.962Z,23.70
2023-09-10T04:48:51.239Z,23.70
2023-09-10T04:51:20.503Z,23.70
2023-09-10T04:53:47.301Z,23.70
2023-09-10T04:56:14.085Z,23.70
2023-09-10T04:58:43.318Z,23.60
2023-09-10T05:01:10.070Z,23.60
2023-09-10T05:03:37.052Z,23.60
2023-09-10T05:06:06.701Z,23.60
2023-09-10T05:08:33.403Z,23.60
2023-09-10T05:11:00.106Z,23.60
2023-09-10T05:13:26.935Z,23.50
2023-09-10T05:15:59.593Z,23.50
2023-09-10T05:18:26.517Z,23.50
2023-09-10T05:20:54.350Z,23.50
2023-09-10T05:23:23.786Z,23.50
2023-09-10T05:25:53.098Z,23.50
2023-09-10T05:28:19.894Z,23.40
2023-09-10T05:30:49.087Z,23.40
2023-09-10T05:33:15.719Z,23.40
2023-09-10T05:35:54.721Z,23.40
2023-09-10T05:38:21.447Z,23.40
2023-09-10T05:40:50.449Z,23.40
2023-09-10T05:43:19.457Z,23.40
2023-09-10T05:45:47.546Z,23.40
2023-09-10T05:48:16.805Z,23.40
2023-09-10T05:50:45.739Z,23.40
2023-09-10T05:53:12.598Z,23.40
2023-09-10T05:55:40.621Z,23.40
2023-09-10T05:58:12.691Z,23.40
2023-09-10T06:00:39.430Z,23.40
2023-09-10T06:03:08.526Z,23.40
2023-09-10T06:05:40.992Z,23.30
2023-09-10T06:08:10.030Z,23.30
2023-09-10T06:10:36.759Z,23.40
2023-09-10T06:13:03.662Z,23.30
2023-09-10T06:15:32.855Z,23.40
2023-09-10T06:18:01.819Z,23.30
2023-09-10T06:20:28.505Z,23.30
2023-09-10T06:22:58.540Z,23.30
2023-09-10T06:25:25.553Z,23.30
2023-09-10T06:27:55.406Z,23.30
2023-09-10T06:30:22.194Z,23.40
2023-09-10T06:32:52.112Z,23.40
2023-09-10T06:35:21.380Z,23.40
2023-09-10T06:37:49.115Z,23.50
2023-09-10T06:40:18.340Z,23.50
2023-09-10T06:42:45.397Z,23.50
2023-09-10T06:45:12.090Z,23.60
2023-09-10T06:47:41.380Z,23.60
2023-09-10T06:50:08.378Z,23.60
2023-09-10T06:52:35.052Z,23.60
2023-09-10T06:55:04.958Z,23.60
2023-09-10T06:57:34.071Z,23.60
2023-09-10T07:00:06.060Z,23.70
2023-09-10T07:02:32.806Z,23.70
2023-09-10T07:05:02.476Z,23.80
2023-09-10T07:07:29.295Z,23.80
2023-09-10T07:10:00.718Z,23.80
2023-09-10T07:12:27.373Z,23.80
2023-09-10T07:14:55.250Z,23.80
2023-09-10T07:17:27.049Z,23.90
2023-09-10T07:19:53.853Z,24.00
2023-09-10T07:22:20.600Z,24.00
2023-09-10T07:24:47.269Z,24.20
2023-09-10T07:27:16.270Z,24.20
2023-09-10T07:29:42.892Z,24.30
2023-09-10T07:32:11.674Z,24.30
2023-09-10T07:34:38.475Z,24.30
2023-09-10T07:37:07.249Z,24.40
2023-09-10T07:39:38.613Z,24.50
2023-09-10T07:42:05.668Z,24.60
2023-09-10T07:44:35.677Z,24.60
2023-09-10T07:47:02.470Z,24.70
2023-09-10T07:49:29.539Z,24.70
2023-09-10T07:51:56.203Z,24.80
2023-09-10T07:54:22.936Z,24.80
2023-09-10T07:56:51.085Z,24.90
2023-09-10T07:59:18.000Z,25.10
2023-09-10T08:01:47.682Z,25.20
2023-09-10T08:04:17.161Z,25.40
2023-09-10T08:06:43.934Z,25.50
2023-09-10T08:09:10.975Z,25.50
2023-09-10T08:11:40.099Z,25.60
2023-09-10T08:14:10.185Z,25.70
2023-09-10T08:16:39.194Z,25.80
2023-09-10T08:19:11.827Z,25.90
2023-09-10T08:21:41.225Z,25.90
2023-09-10T08:24:10.194Z,26.00
2023-09-10T08:26:43.346Z,26.10
2023-09-10T08:29:16.687Z,26.10
2023-09-10T08:31:47.114Z,26.20
2023-09-10T08:34:17.366Z,26.30
2023-09-10T08:36:45.844Z,26.40
2023-09-10T08:39:13.664Z,26.50
2023-09-10T08:42:02.926Z,26.60
2023-09-10T08:44:34.302Z,26.70
2023-09-10T08:47:02.564Z,26.90
2023-09-10T08:49:33.605Z,27.10
2023-09-10T08:52:03.067Z,27.10
2023-09-10T08:54:30.571Z,27.10
2023-09-10T08:56:59.966Z,27.10
2023-09-10T08:59:29.326Z,27.30
2023-09-10T09:02:00.509Z,27.50
2023-09-10T09:04:31.647Z,27.50
2023-09-10T09:07:02.142Z,27.50
2023-09-10T09:09:34.491Z,27.70
2023-09-10T09:12:05.176Z,27.80
2023-09-10T09:14:37.669Z,28.10
2023-09-10T09:17:06.432Z,28.10
2023-09-10T09:19:36.734Z,28.30
2023-09-10T09:22:07.016Z,28.30
2023-09-10T09:24:39.591Z,28.40
2023-09-10T09:27:13.428Z,28.20
2023-09-10T09:29:40.689Z,28.40
2023-09-10T09:32:07.351Z,28.60
2023-09-10T09:34:34.494Z,28.60
2023-09-10T09:37:02.454Z,28.80
2023-09-10T09:39:31.051Z,28.90
2023-09-10T09:41:59.954Z,29.00
2023-09-10T09:44:31.396Z,28.90
2023-09-10T09:46:58.796Z,29.20
2023-09-10T09:49:26.840Z,29.10
2023-09-10T09:51:54.018Z,29.40
2023-09-10T09:54:26.611Z,29.50
2023-09-10T09:56:53.330Z,29.50
2023-09-10T09:59:20.845Z,29.50
2023-09-10T10:01:48.000Z,29.60
2023-09-10T10:04:19.660Z,29.50
2023-09-10T10:06:49.642Z,29.50
2023-09-10T10:09:20.302Z,29.50
2023-09-10T10:11:47.425Z,29.70
2023-09-10T10:14:18.342Z,29.70
2023-09-10T10:16:45.689Z,29.90
2023-09-10T10:19:13.266Z,29.90
2023-09-10T10:21:40.856Z,29.80
2023-09-10T10:24:08.532Z,30.00
2023-09-10T10:26:35.807Z,30.00
2023-09-10T10:29:05.706Z,30.10
2023-09-10T10:31:38.046Z,30.40
2023-09-10T10:34:12.231Z,30.40
2023-09-10T10:37:14.590Z,30.40
2023-09-10T10:39:48.152Z,30.40
2023-09-10T10:42:19.120Z,30.40
2023-09-10T10:44:52.062Z,30.50
2023-09-10T10:47:23.505Z,30.60
2023-09-10T10:49:54.804Z,30.70
2023-09-10T10:52:27.058Z,30.80
2023-09-10T10:54:54.857Z,31.00
2023-09-10T10:57:22.850Z,31.00
2023-09-10T10:59:50.403Z,30.90
2023-09-10T11:02:27.555Z,31.00
2023-09-10T11:05:02.768Z,31.20
2023-09-10T11:07:33.079Z,31.30
2023-09-10T11:10:01.561Z,31.40
2023-09-10T11:12:30.818Z,31.50
2023-09-10T11:15:02.535Z,31.60
2023-09-10T11:17:33.373Z,31.60
2023-09-10T11:20:01.683Z,31.70
2023-09-10T11:22:28.564Z,31.70
2023-09-10T11:25:08.337Z,31.90
2023-09-10T11:27:35.693Z,31.90
2023-09-10T11:30:09.523Z,32.00
2023-09-10T11:32:36.772Z,32.00
2023-09-10T11:35:18.781Z,32.00
2023-09-10T11:37:53.930Z,32.20
2023-09-10T11:40:23.031Z,32.20
2023-09-10T11:42:52.987Z,32.30
2023-09-10T11:45:20.455Z,32.50
2023-09-10T11:47:49.548Z,32.60
2023-09-10T11:50:23.302Z,32.60
2023-09-10T11:52:50.585Z,32.70
2023-09-10T11:55:20.119Z,32.90
2023-09-10T11:57:51.516Z,33.00
2023-09-10T12:00:19.135Z,33.00
2023-09-10T12:02:45.983Z,33.20
2023-09-10T12:05:12.818Z,33.00
2023-09-10T12:07:44.517Z,33.10
2023-09-10T12:10:14.012Z,33.40
2023-09-10T12:12:43.615Z,33.60
2023-09-10T12:15:10.940Z,33.60
2023-09-10T12:17:37.880Z,33.50
2023-09-10T12:20:05.143Z,33.60
2023-09-10T12:22:33.985Z,33.40
2023-09-10T12:25:01.664Z,33.50
2023-09-10T12:27:28.280Z,33.60
2023-09-10T12:29:57.660Z,34.00
2023-09-10T12:32:26.934Z,33.90
2023-09-10T12:34:58.405Z,34.00
2023-09-10T12:37:25.188Z,34.00
2023-09-10T12:39:53.572Z,34.00
2023-09-10T12:42:25.614Z,34.10
2023-09-10T12:44:52.286Z,34.20
2023-09-10T12:47:19.046Z,34.20
2023-09-10T12:49:49.214Z,34.10
2023-09-10T12:52:16.049Z,34.00
2023-09-10T12:54:43.057Z,34.20
2023-09-10T12:57:13.883Z,34.20
2023-09-10T12:59:42.808Z,34.50
2023-09-10T13:02:12.044Z,34.40
2023-09-10T13:04:41.221Z,34.60
2023-09-10T13:07:11.885Z,34.30
2023-09-10T13:09:41.003Z,34.50
2023-09-10T13:12:08.091Z,34.70
2023-09-10T13:14:40.872Z,34.40
2023-09-10T13:17:11.488Z,34.70
2023-09-10T13:19:38.669Z,34.70
2023-09-10T13:22:10.643Z,34.60
2023-09-10T13:24:37.300Z,34.60
2023-09-10T13:27:06.895Z,34.90
2023-09-10T13:29:33.654Z,34.90
2023-09-10T13:32:03.175Z,34.90
2023-09-10T13:34:32.948Z,34.90
2023-09-10T13:36:59.691Z,34.90
2023-09-10T13:39:35.285Z,34.90
2023-09-10T13:42:03.447Z,34.80
2023-09-10T13:44:30.383Z,34.80
2023-09-10T13:46:57.137Z,34.90
2023-09-10T13:49:23.926Z,34.90
2023-09-10T13:51:54.273Z,34.90
2023-09-10T13:54:20.948Z,34.70
2023-09-10T13:56:47.721Z,34.80
2023-09-10T13:59:15.007Z,35.10
2023-09-10T14:01:43.227Z,35.20
2023-09-10T14:04:12.120Z,35.20
2023-09-10T14:06:38.922Z,35.10
2023-09-10T14:09:05.641Z,35.10
2023-09-10T14:11:32.372Z,35.30
2023-09-10T14:13:59.055Z,35.10
2023-09-10T14:16:26.152Z,35.20
2023-09-10T14:18:52.823Z,35.20
2023-09-10T14:21:22.360Z,35.20
2023-09-10T14:23:49.123Z,35.10
2023-09-10T14:26:15.906Z,35.30
2023-09-10T14:28:44.958Z,35.30
2023-09-10T14:31:14.004Z,35.20
2023-09-10T14:33:45.531Z,35.10
2023-09-10T14:36:12.230Z,35.10
2023-09-10T14:38:42.286Z,35.20
2023-09-10T14:41:09.140Z,35.10
2023-09-10T14:43:38.679Z,35.20
2023-09-10T14:46:06.013Z,35.10
2023-09-10T14:48:32.718Z,35.10
2023-09-10T14:50:59.387Z,35.20
2023-09-10T14:53:26.168Z,35.10
2023-09-10T14:55:52.942Z,35.20
2023-09-10T14:58:19.700Z,35.10
2023-09-10T15:00:46.439Z,35.10
2023-09-10T15:03:13.324Z,35.10
2023-09-10T15:05:41.383Z,35.10
2023-09-10T15:08:10.820Z,35.00
2023-09-10T15:10:39.990Z,35.00
2023-09-10T15:13:06.699Z,35.00
2023-09-10T15:15:35.911Z,35.10
2023-09-10T15:18:02.703Z,35.10
2023-09-10T15:20:29.519Z,35.10
2023-09-10T15:22:56.242Z,35.00
2023-09-10T15:25:25.484Z,34.90
2023-09-10T15:27:54.759Z,34.80
2023-09-10T15:30:23.611Z,34.80
2023-09-10T15:32:50.382Z,34.80
2023-09-10T15:35:17.157Z,34.70
2023-09-10T15:37:46.452Z,34.70
2023-09-10T15:40:13.267Z,34.70
2023-09-10T15:42:39.973Z,34.60
2023-09-10T15:45:07.413Z,34.70
2023-09-10T15:47:36.713Z,34.60
2023-09-10T15:50:05.808Z,34.50
2023-09-10T15:52:35.042Z,34.60
2023-09-10T15:55:04.882Z,34.60
2023-09-10T15:57:31.707Z,34.50
2023-09-10T16:00:03.678Z,34.50
2023-09-10T16:02:33.098Z,34.50
2023-09-10T16:05:00.273Z,34.40
2023-09-10T16:07:27.286Z,34.40
2023-09-10T16:09:56.538Z,34.50
2023-09-10T16:12:24.146Z,34.40
2023-09-10T16:15:09.269Z,34.30
2023-09-10T16:17:36.398Z,34.20
2023-09-10T16:20:03.791Z,34.10
2023-09-10T16:22:35.672Z,34.20
2023-09-10T16:25:02.400Z,34.10
2023-09-10T16:27:29.185Z,34.10
2023-09-10T16:29:55.891Z,34.10
2023-09-10T16:32:25.115Z,34.10
2023-09-10T16:34:51.838Z,34.10
2023-09-10T16:37:23.271Z,34.10
2023-09-10T16:39:50.086Z,34.10
2023-09-10T16:42:16.986Z,34.00
2023-09-10T16:44:43.761Z,34.00
2023-09-10T16:47:10.512Z,34.00
2023-09-10T16:49:37.419Z,33.90
2023-09-10T16:52:05.299Z,33.90
2023-09-10T16:54:34.351Z,33.70
2023-09-10T16:57:01.071Z,33.70
2023-09-10T16:59:28.037Z,33.70
2023-09-10T17:01:55.041Z,33.60
2023-09-10T17:04:21.743Z,33.70
2023-09-10T17:06:48.424Z,33.60
2023-09-10T17:09:15.452Z,33.50
2023-09-10T17:11:42.418Z,33.50
2023-09-10T17:14:12.218Z,33.40
2023-09-10T17:16:38.902Z,33.30
2023-09-10T17:19:10.770Z,33.20
2023-09-10T17:21:37.452Z,33.10
2023-09-10T17:24:04.489Z,33.00
2023-09-10T17:26:33.709Z,32.90
2023-09-10T17:29:04.879Z,32.90
2023-09-10T17:31:32.375Z,32.90
2023-09-10T17:34:01.487Z,32.80
2023-09-10T17:36:30.728Z,32.80
2023-09-10T17:38:57.390Z,32.80
2023-09-10T17:41:24.146Z,32.70
2023-09-10T17:43:51.152Z,32.60
2023-09-10T17:46:20.326Z,32.50
2023-09-10T17:48:47.279Z,32.50
2023-09-10T17:51:20.532Z,32.40
2023-09-10T17:53:50.078Z,32.30
2023-09-10T17:56:18.162Z,32.30
2023-09-10T17:58:44.998Z,32.20
2023-09-10T18:01:11.728Z,32.10
2023-09-10T18:03:38.631Z,32.00
2023-09-10T18:06:05.536Z,32.00
2023-09-10T18:08:34.849Z,31.80
2023-09-10T18:11:01.674Z,31.80
2023-09-10T18:13:28.423Z,31.70
2023-09-10T18:15:55.286Z,31.60
2023-09-10T18:18:22.237Z,31.60
2023-09-10T18:20:49.029Z,31.50
2023-09-10T18:23:18.262Z,31.50
2023-09-10T18:25:45.053Z,31.40
2023-09-10T18:28:14.222Z,31.40
2023-09-10T18:30:40.974Z,31.20
2023-09-10T18:33:07.831Z,31.10
2023-09-10T18:35:40.348Z,31.00
2023-09-10T18:38:09.458Z,30.90
2023-09-10T18:40:43.334Z,30.70
2023-09-10T18:43:09.998Z,30.70
2023-09-10T18:45:36.728Z,30.70
2023-09-10T18:48:08.155Z,30.60
2023-09-10T18:50:34.867Z,30.60
2023-09-10T18:53:03.852Z,30.50
2023-09-10T18:55:30.997Z,30.40
2023-09-10T18:58:00.155Z,30.30
2023-09-10T19:00:26.995Z,30.50
2023-09-10T19:02:54.005Z,30.50
2023-09-10T19:05:20.882Z,30.50
2023-09-10T19:07:47.640Z,30.40
2023-09-10T19:10:16.673Z,30.40
2023-09-10T19:12:44.984Z,30.30
2023-09-10T19:15:11.974Z,30.30
2023-09-10T19:17:41.045Z,30.30
2023-09-10T19:20:10.788Z,30.20
2023-09-10T19:22:37.660Z,30.20
2023-09-10T19:25:07.099Z,30.10
2023-09-10T19:27:35.933Z,30.10
2023-09-10T19:30:02.671Z,30.10
2023-09-10T19:32:29.536Z,30.00
2023-09-10T19:34:59.182Z,30.00
2023-09-10T19:37:27.987Z,29.90
2023-09-10T19:39:58.821Z,29.90
2023-09-10T19:42:27.719Z,29.80
2023-09-10T19:44:54.375Z,29.80
2023-09-10T19:47:21.150Z,29.80
2023-09-10T19:49:51.690Z,29.70
2023-09-10T19:52:18.422Z,29.70
2023-09-10T19:54:52.817Z,29.60
2023-09-10T19:57:26.111Z,29.60
2023-09-10T19:59:57.500Z,29.50
2023-09-10T20:02:26.575Z,29.50
2023-09-10T20:04:56.218Z,29.50
2023-09-10T20:07:23.131Z,29.40
2023-09-10T20:09:51.357Z,29.40
2023-09-10T20:12:22.394Z,29.40
2023-09-10T20:14:50.416Z,29.30
2023-09-10T20:17:21.296Z,29.30
2023-09-10T20:19:53.066Z,29.20
2023-09-10T20:22:19.726Z,29.20
2023-09-10T20:24:46.381Z,29.20
2023-09-10T20:27:13.331Z,29.10
2023-09-10T20:29:42.827Z,29.10
2023-09-10T20:32:12.633Z,29.00
2023-09-10T20:34:42.338Z,29.00
2023-09-10T20:37:09.001Z,29.00
2023-09-10T20:39:35.949Z,28.90
2023-09-10T20:42:03.640Z,28.90
2023-09-10T20:44:30.599Z,28.90
2023-09-10T20:46:57.428Z,28.80
2023-09-10T20:49:26.539Z,28.80
2023-09-10T20:51:56.268Z,28.80
2023-09-10T20:54:22.939Z,28.70
2023-09-10T20:56:49.653Z,28.70
2023-09-10T20:59:16.553Z,28.70
2023-09-10T21:01:43.461Z,28.60
2023-09-10T21:04:15.071Z,28.60
2023-09-10T21:06:44.203Z,28.60
2023-09-10T21:09:11.116Z,28.50
2023-09-10T21:11:42.604Z,28.50
2023-09-10T21:14:09.293Z,28.50
2023-09-10T21:16:36.131Z,28.40
2023-09-10T21:19:03.218Z,28.40
2023-09-10T21:21:34.787Z,28.40
2023-09-10T21:24:06.452Z,28.30
2023-09-10T21:26:33.195Z,28.30
2023-09-10T21:29:01.978Z,28.30
2023-09-10T21:31:28.643Z,28.30
2023-09-10T21:33:57.795Z,28.20
2023-09-10T21:36:24.471Z,28.20
2023-09-10T21:38:51.153Z,28.20
2023-09-10T21:41:17.889Z,28.10
2023-09-10T21:43:47.032Z,28.10
2023-09-10T21:46:16.009Z,28.10
2023-09-10T21:48:43.038Z,28.10
2023-09-10T21:51:10.086Z,28.00
2023-09-10T21:53:36.821Z,28.00
2023-09-10T21:56:06.014Z,28.00
2023-09-10T21:58:32.854Z,28.00
2023-09-10T22:01:01.807Z,27.90
2023-09-10T22:03:31.156Z,27.90
2023-09-10T22:05:58.257Z,27.90
2023-09-10T22:08:30.816Z,27.80
2023-09-10T22:11:01.699Z,27.80
2023-09-10T22:13:28.693Z,27.80
2023-09-10T22:15:58.240Z,27.80
2023-09-10T22:18:26.026Z,27.80
2023-09-10T22:20:55.190Z,27.70
2023-09-10T22:23:22.555Z,27.70
2023-09-10T22:25:50.290Z,27.70
2023-09-10T22:28:22.510Z,27.60
2023-09-10T22:30:52.231Z,27.60
2023-09-10T22:33:19.252Z,27.60
2023-09-10T22:35:45.954Z,27.60
2023-09-10T22:38:12.699Z,27.50
2023-09-10T22:40:39.372Z,27.50
2023-09-10T22:43:08.308Z,27.50
2023-09-10T22:45:35.610Z,27.40
2023-09-10T22:48:07.102Z,27.40
2023-09-10T22:50:33.942Z,27.40
2023-09-10T22:53:02.667Z,27.40
2023-09-10T22:55:34.158Z,27.30
2023-09-10T22:58:01.008Z,27.30
2023-09-10T23:00:28.022Z,27.30
2023-09-10T23:02:57.068Z,27.30
2023-09-10T23:05:26.161Z,27.20
2023-09-10T23:07:52.858Z,27.20
2023-09-10T23:10:21.934Z,27.20
2023-09-10T23:12:54.638Z,27.20
2023-09-10T23:15:21.980Z,27.10
2023-09-10T23:17:48.904Z,27.10
2023-09-10T23:20:18.275Z,27.10
2023-09-10T23:22:45.011Z,27.10
2023-09-10T23:25:11.685Z,27.00
2023-09-10T23:27:38.347Z,27.00
2023-09-10T23:30:05.490Z,27.00
2023-09-10T23:32:34.564Z,26.90
2023-09-10T23:35:01.385Z,26.90
2023-09-10T23:37:28.166Z,26.90
2023-09-10T23:39:57.067Z,26.90
2023-09-10T23:42:26.035Z,26.80
2023-09-10T23:44:52.820Z,26.80
2023-09-10T23:47:19.646Z,26.80
2023-09-10T23:49:48.513Z,26.80
2023-09-10T23:52:15.228Z,26.70
2023-09-10T23:54:48.866Z,26.70
2023-09-10T23:57:15.591Z,26.70
2023-09-10T23:59:42.648Z,26.70
